createdAt,value
2022-12-04T00:00:08.322Z,1.23
2022-12-04T00:00:27.309Z,1.23
2022-12-04T00:01:04.131Z,1.21
2022-12-04T00:01:19.632Z,1.21
2022-12-04T00:01:33.265Z,1.21
2022-12-04T00:01:45.937Z,1.22
2022-12-04T00:01:58.526Z,1.23
2022-12-04T00:02:11.285Z,1.23
2022-12-04T00:02:23.920Z,1.22
2022-12-04T00:02:36.674Z,1.23
2022-12-04T00:02:49.323Z,1.24
2022-12-04T00:03:02.017Z,1.23
2022-12-04T00:03:15.729Z,1.23
2022-12-04T00:03:28.696Z,1.23
2022-12-04T00:03:41.470Z,1.22
2022-12-04T00:03:55.547Z,1.25
2022-12-04T00:04:08.325Z,1.23
2022-12-04T00:04:20.988Z,1.23
2022-12-04T00:04:34.746Z,1.26
2022-12-04T00:04:47.441Z,1.26
2022-12-04T00:05:00.226Z,1.25
2022-12-04T00:05:13.118Z,1.26
2022-12-04T00:05:25.751Z,1.27
2022-12-04T00:05:38.318Z,1.28
2022-12-04T00:06:04.051Z,1.28
2022-12-04T00:06:18.274Z,1.27
2022-12-04T00:06:30.994Z,1.26
2022-12-04T00:06:43.569Z,1.27
2022-12-04T00:06:58.851Z,1.26
2022-12-04T00:07:11.796Z,1.25
2022-12-04T00:07:25.456Z,1.27
2022-12-04T00:07:38.347Z,1.27
2022-12-04T00:07:51.081Z,1.27
2022-12-04T00:08:03.906Z,1.27
2022-12-04T00:08:16.608Z,1.27
2022-12-04T00:08:29.226Z,1.27
2022-12-04T00:08:42.297Z,1.27
2022-12-04T00:08:55.846Z,1.26
2022-12-04T00:09:09.605Z,1.28
2022-12-04T00:09:22.487Z,1.28
2022-12-04T00:09:35.059Z,1.28
2022-12-04T00:09:47.673Z,1.28
2022-12-04T00:10:00.534Z,1.29
2022-12-04T00:10:13.189Z,1.29
2022-12-04T00:10:26.140Z,1.27
2022-12-04T00:10:43.542Z,1.29
2022-12-04T00:10:56.157Z,1.28
2022-12-04T00:11:11.433Z,1.28
2022-12-04T00:11:26.411Z,1.28
2022-12-04T00:11:39.454Z,1.27
2022-12-04T00:11:53.308Z,1.27
2022-12-04T00:12:06.313Z,1.28
2022-12-04T00:12:18.926Z,1.27
2022-12-04T00:12:31.577Z,1.27
2022-12-04T00:12:44.204Z,1.27
2022-12-04T00:12:56.780Z,1.27
2022-12-04T00:13:09.532Z,1.27
2022-12-04T00:13:22.172Z,1.29
2022-12-04T00:13:36.516Z,1.29
2022-12-04T00:13:49.991Z,1.29
2022-12-04T00:14:06.901Z,1.29
2022-12-04T00:14:20.103Z,1.29
2022-12-04T00:14:32.886Z,1.29
2022-12-04T00:15:23.501Z,1.28
2022-12-04T00:15:26.980Z,1.28
2022-12-04T00:15:42.944Z,1.28
2022-12-04T00:15:55.588Z,1.28
2022-12-04T00:16:12.260Z,1.28
2022-12-04T00:16:27.547Z,1.28
2022-12-04T00:16:40.356Z,1.28
2022-12-04T00:16:53.184Z,1.27
2022-12-04T00:17:06.812Z,1.28
2022-12-04T00:17:19.398Z,1.28
2022-12-04T00:17:32.056Z,1.27
2022-12-04T00:17:47.638Z,1.27
2022-12-04T00:18:00.262Z,1.27
2022-12-04T00:18:12.895Z,1.27
2022-12-04T00:18:25.667Z,1.27
2022-12-04T00:18:38.353Z,1.26
2022-12-04T00:18:52.309Z,1.27
2022-12-04T00:19:05.347Z,1.26
2022-12-04T00:19:17.970Z,1.25
2022-12-04T00:19:30.558Z,1.25
2022-12-04T00:19:43.186Z,1.25
2022-12-04T00:19:55.997Z,1.24
2022-12-04T00:20:09.628Z,1.24
2022-12-04T00:20:24.112Z,1.23
2022-12-04T00:20:39.707Z,1.23
2022-12-04T00:20:53.898Z,1.22
2022-12-04T00:21:08.893Z,1.22
2022-12-04T00:21:23.456Z,1.22
2022-12-04T00:21:36.557Z,1.22
2022-12-04T00:21:49.894Z,1.21
2022-12-04T00:22:03.492Z,1.22
2022-12-04T00:22:16.070Z,1.23
2022-12-04T00:22:28.664Z,1.22
2022-12-04T00:22:41.374Z,1.22
2022-12-04T00:22:54.030Z,1.22
2022-12-04T00:23:06.912Z,1.22
2022-12-04T00:23:19.485Z,1.22
2022-12-04T00:23:32.250Z,1.22
2022-12-04T00:23:45.949Z,1.22
2022-12-04T00:23:58.527Z,1.20
2022-12-04T00:24:11.285Z,1.21
2022-12-04T00:24:23.840Z,1.21
2022-12-04T00:24:36.847Z,1.22
2022-12-04T00:24:49.417Z,1.22
2022-12-04T00:25:03.018Z,1.22
2022-12-04T00:25:15.624Z,1.22
2022-12-04T00:25:30.310Z,1.25
2022-12-04T00:25:43.233Z,1.23
2022-12-04T00:26:00.340Z,1.23
2022-12-04T00:26:16.443Z,1.24
2022-12-04T00:26:31.145Z,1.23
2022-12-04T00:26:43.820Z,1.24
2022-12-04T00:26:56.520Z,1.24
2022-12-04T00:27:09.093Z,1.23
2022-12-04T00:27:21.696Z,1.24
2022-12-04T00:27:34.305Z,1.23
2022-12-04T00:27:47.878Z,1.25
2022-12-04T00:28:00.463Z,1.24
2022-12-04T00:28:13.056Z,1.25
2022-12-04T00:28:25.648Z,1.25
2022-12-04T00:28:38.554Z,1.25
2022-12-04T00:28:52.142Z,1.26
2022-12-04T00:29:05.003Z,1.25
2022-12-04T00:29:19.140Z,1.25
2022-12-04T00:29:31.731Z,1.26
2022-12-04T00:29:44.386Z,1.26
2022-12-04T00:29:57.161Z,1.27
2022-12-04T00:30:10.939Z,1.26
2022-12-04T00:30:23.566Z,1.25
2022-12-04T00:30:41.381Z,1.25
2022-12-04T00:30:53.954Z,1.26
2022-12-04T00:31:08.992Z,1.26
2022-12-04T00:31:23.890Z,1.27
2022-12-04T00:31:36.643Z,1.25
2022-12-04T00:31:50.391Z,1.25
2022-12-04T00:32:03.052Z,1.27
2022-12-04T00:32:16.016Z,1.26
2022-12-04T00:32:28.583Z,1.27
2022-12-04T00:32:41.407Z,1.27
2022-12-04T00:32:54.108Z,1.27
2022-12-04T00:33:06.699Z,1.27
2022-12-04T00:33:20.576Z,1.28
2022-12-04T00:33:33.706Z,1.28
2022-12-04T00:33:46.840Z,1.27
2022-12-04T00:34:00.743Z,1.28
2022-12-04T00:34:15.542Z,1.28
2022-12-04T00:34:28.368Z,1.28
2022-12-04T00:34:40.951Z,1.27
2022-12-04T00:34:53.559Z,1.28
2022-12-04T00:35:07.071Z,1.28
2022-12-04T00:35:19.714Z,1.29
2022-12-04T00:35:32.305Z,1.30
2022-12-04T00:35:45.867Z,1.31
2022-12-04T00:36:01.378Z,1.31
2022-12-04T00:36:16.050Z,1.32
2022-12-04T00:36:29.542Z,1.31
2022-12-04T00:36:42.145Z,1.31
2022-12-04T00:36:54.811Z,1.31
2022-12-04T00:37:08.400Z,1.32
2022-12-04T00:37:21.248Z,1.32
2022-12-04T00:37:33.942Z,1.32
2022-12-04T00:37:46.530Z,1.33
2022-12-04T00:37:59.134Z,1.32
2022-12-04T00:38:11.716Z,1.33
2022-12-04T00:38:24.381Z,1.35
2022-12-04T00:38:38.257Z,1.34
2022-12-04T00:38:52.678Z,1.35
2022-12-04T00:39:05.836Z,1.34
2022-12-04T00:39:18.390Z,1.35
2022-12-04T00:39:31.013Z,1.34
2022-12-04T00:39:43.634Z,1.35
2022-12-04T00:39:56.531Z,1.36
2022-12-04T00:40:10.972Z,1.36
2022-12-04T00:40:23.595Z,1.37
2022-12-04T00:40:36.182Z,1.38
2022-12-04T00:40:50.144Z,1.37
2022-12-04T00:41:03.236Z,1.38
2022-12-04T00:41:17.956Z,1.38
2022-12-04T00:41:33.351Z,1.37
2022-12-04T00:41:46.182Z,1.37
2022-12-04T00:41:58.746Z,1.37
2022-12-04T00:42:11.361Z,1.37
2022-12-04T00:42:23.991Z,1.38
2022-12-04T00:42:36.570Z,1.38
2022-12-04T00:42:50.184Z,1.39
2022-12-04T00:43:02.812Z,1.39
2022-12-04T00:43:15.470Z,1.38
2022-12-04T00:43:28.904Z,1.39
2022-12-04T00:43:41.708Z,1.39
2022-12-04T00:43:54.484Z,1.38
2022-12-04T00:44:07.094Z,1.38
2022-12-04T00:44:19.796Z,1.38
2022-12-04T00:44:33.441Z,1.38
2022-12-04T00:44:46.033Z,1.39
2022-12-04T00:44:58.628Z,1.40
2022-12-04T00:45:11.666Z,1.39
2022-12-04T00:45:24.292Z,1.39
2022-12-04T00:45:37.040Z,1.40
2022-12-04T00:45:50.106Z,1.41
2022-12-04T00:46:03.883Z,1.40
2022-12-04T00:46:17.639Z,1.40
2022-12-04T00:46:30.622Z,1.40
2022-12-04T00:46:43.225Z,1.40
2022-12-04T00:46:55.812Z,1.41
2022-12-04T00:47:08.514Z,1.39
2022-12-04T00:47:21.114Z,1.40
2022-12-04T00:47:34.672Z,1.39
2022-12-04T00:47:47.254Z,1.39
2022-12-04T00:47:59.808Z,1.40
2022-12-04T00:48:12.600Z,1.40
2022-12-04T00:48:25.631Z,1.40
2022-12-04T00:48:38.223Z,1.40
2022-12-04T00:48:51.145Z,1.40
2022-12-04T00:49:04.776Z,1.40
2022-12-04T00:49:17.362Z,1.40
2022-12-04T00:49:29.959Z,1.40
2022-12-04T00:49:42.544Z,1.39
2022-12-04T00:49:55.407Z,1.40
2022-12-04T00:50:09.339Z,1.41
2022-12-04T00:50:23.625Z,1.42
2022-12-04T00:50:38.142Z,1.41
2022-12-04T00:50:50.786Z,1.42
2022-12-04T00:51:05.785Z,1.42
2022-12-04T00:51:20.707Z,1.44
2022-12-04T00:51:33.296Z,1.44
2022-12-04T00:51:46.880Z,1.43
2022-12-04T00:51:59.460Z,1.44
2022-12-04T00:52:12.055Z,1.42
2022-12-04T00:52:24.719Z,1.43
2022-12-04T00:52:37.391Z,1.43
2022-12-04T00:52:49.949Z,1.43
2022-12-04T00:53:02.540Z,1.43
2022-12-04T00:53:15.342Z,1.44
2022-12-04T00:53:29.062Z,1.43
2022-12-04T00:53:41.998Z,1.44
2022-12-04T00:53:54.587Z,1.45
2022-12-04T00:54:07.371Z,1.45
2022-12-04T00:54:19.968Z,1.47
2022-12-04T00:54:32.558Z,1.46
2022-12-04T00:54:45.554Z,1.44
2022-12-04T00:54:59.162Z,1.46
2022-12-04T00:55:12.053Z,1.45
2022-12-04T00:55:26.813Z,1.46
2022-12-04T00:55:39.968Z,1.46
2022-12-04T00:55:52.552Z,1.44
2022-12-04T00:56:07.150Z,1.44
2022-12-04T00:56:21.642Z,1.43
2022-12-04T00:56:35.217Z,1.42
2022-12-04T00:56:47.835Z,1.43
2022-12-04T00:57:00.403Z,1.43
2022-12-04T00:57:13.012Z,1.43
2022-12-04T00:57:25.625Z,1.43
2022-12-04T00:57:38.239Z,1.43
2022-12-04T00:57:53.637Z,1.43
2022-12-04T00:58:09.546Z,1.43
2022-12-04T00:58:22.145Z,1.43
2022-12-04T00:58:34.740Z,1.44
2022-12-04T00:58:48.235Z,1.44
2022-12-04T00:59:01.693Z,1.45
2022-12-04T00:59:15.553Z,1.44
2022-12-04T00:59:28.309Z,1.43
2022-12-04T00:59:40.920Z,1.44
2022-12-04T00:59:53.893Z,1.43
2022-12-04T01:00:08.100Z,1.43
2022-12-04T01:00:20.699Z,1.44
2022-12-04T01:00:33.425Z,1.44
2022-12-04T01:00:47.054Z,1.44
2022-12-04T01:01:03.701Z,1.44
2022-12-04T01:01:20.645Z,1.44
2022-12-04T01:01:33.430Z,1.44
2022-12-04T01:01:46.175Z,1.45
2022-12-04T01:01:58.794Z,1.46
2022-12-04T01:02:12.508Z,1.45
2022-12-04T01:02:25.147Z,1.46
2022-12-04T01:02:37.836Z,1.45
2022-12-04T01:02:50.545Z,1.45
2022-12-04T01:03:04.121Z,1.45
2022-12-04T01:03:16.850Z,1.45
2022-12-04T01:03:29.566Z,1.47
2022-12-04T01:03:43.168Z,1.46
2022-12-04T01:03:57.299Z,1.46
2022-12-04T01:04:09.894Z,1.46
2022-12-04T01:04:22.546Z,1.46
2022-12-04T01:04:35.292Z,1.46
2022-12-04T01:04:48.171Z,1.46
2022-12-04T01:05:01.453Z,1.47
2022-12-04T01:05:14.184Z,1.47
2022-12-04T01:05:27.871Z,1.48
2022-12-04T01:05:41.519Z,1.48
2022-12-04T01:05:54.297Z,1.49
2022-12-04T01:06:17.113Z,1.49
2022-12-04T01:06:31.469Z,1.50
2022-12-04T01:06:45.064Z,1.50
2022-12-04T01:07:03.240Z,1.48
2022-12-04T01:07:17.728Z,1.49
2022-12-04T01:07:30.361Z,1.49
2022-12-04T01:07:43.036Z,1.49
2022-12-04T01:07:56.016Z,1.50
2022-12-04T01:08:09.335Z,1.51
2022-12-04T01:08:22.928Z,1.51
2022-12-04T01:08:35.517Z,1.52
2022-12-04T01:08:48.715Z,1.52
2022-12-04T01:09:03.974Z,1.53
2022-12-04T01:09:16.645Z,1.54
2022-12-04T01:09:30.258Z,1.53
2022-12-04T01:09:42.905Z,1.52
2022-12-04T01:09:55.717Z,1.52
2022-12-04T01:10:12.326Z,1.52
2022-12-04T01:10:24.973Z,1.52
2022-12-04T01:10:38.799Z,1.51
2022-12-04T01:10:51.453Z,1.51
2022-12-04T01:11:07.971Z,1.50
2022-12-04T01:11:21.424Z,1.49
2022-12-04T01:11:34.214Z,1.51
2022-12-04T01:11:46.823Z,1.51
2022-12-04T01:11:59.417Z,1.49
2022-12-04T01:12:17.552Z,1.50
2022-12-04T01:12:34.160Z,1.51
2022-12-04T01:12:49.628Z,1.50
2022-12-04T01:13:02.251Z,1.50
2022-12-04T01:13:14.839Z,1.51
2022-12-04T01:13:27.489Z,1.50
2022-12-04T01:13:40.068Z,1.49
2022-12-04T01:13:52.887Z,1.50
2022-12-04T01:14:06.500Z,1.49
2022-12-04T01:14:19.114Z,1.49
2022-12-04T01:14:31.814Z,1.50
2022-12-04T01:14:44.420Z,1.49
2022-12-04T01:14:57.080Z,1.49
2022-12-04T01:15:10.595Z,1.49
2022-12-04T01:15:23.573Z,1.49
2022-12-04T01:15:40.437Z,1.49
2022-12-04T01:15:53.043Z,1.50
2022-12-04T01:16:05.827Z,1.49
2022-12-04T01:16:21.509Z,1.48
2022-12-04T01:16:37.316Z,1.49
2022-12-04T01:16:51.357Z,1.51
2022-12-04T01:17:04.053Z,1.50
2022-12-04T01:17:16.990Z,1.51
2022-12-04T01:17:29.589Z,1.51
2022-12-04T01:17:42.360Z,1.51
2022-12-04T01:17:54.929Z,1.50
2022-12-04T01:18:07.529Z,1.51
2022-12-04T01:18:20.123Z,1.52
2022-12-04T01:18:33.668Z,1.51
2022-12-04T01:18:46.649Z,1.52
2022-12-04T01:18:59.807Z,1.52
2022-12-04T01:19:12.832Z,1.53
2022-12-04T01:19:25.415Z,1.52
2022-12-04T01:19:38.037Z,1.52
2022-12-04T01:19:50.644Z,1.51
2022-12-04T01:20:04.902Z,1.51
2022-12-04T01:20:17.973Z,1.51
2022-12-04T01:20:30.562Z,1.51
2022-12-04T01:20:48.808Z,1.52
2022-12-04T01:21:01.412Z,1.51
2022-12-04T01:21:16.519Z,1.51
2022-12-04T01:21:29.136Z,1.51
2022-12-04T01:21:42.768Z,1.51
2022-12-04T01:21:55.350Z,1.52
2022-12-04T01:22:07.999Z,1.52
2022-12-04T01:22:20.672Z,1.53
2022-12-04T01:22:33.422Z,1.53
2022-12-04T01:22:46.021Z,1.55
2022-12-04T01:22:58.614Z,1.54
2022-12-04T01:23:29.763Z,1.53
2022-12-04T01:23:42.420Z,1.52
2022-12-04T01:23:55.056Z,1.53
2022-12-04T01:24:08.201Z,1.53
2022-12-04T01:24:20.830Z,1.54
2022-12-04T01:24:33.416Z,1.52
2022-12-04T01:24:45.979Z,1.52
2022-12-04T01:24:58.583Z,1.51
2022-12-04T01:25:12.591Z,1.54
2022-12-04T01:25:25.444Z,1.52
2022-12-04T01:25:38.025Z,1.54
2022-12-04T01:25:52.301Z,1.54
2022-12-04T01:26:05.113Z,1.54
2022-12-04T01:26:17.778Z,1.53
2022-12-04T01:26:30.515Z,1.54
2022-12-04T01:26:44.110Z,1.53
2022-12-04T01:26:56.778Z,1.53
2022-12-04T01:27:09.446Z,1.52
2022-12-04T01:27:22.184Z,1.52
2022-12-04T01:27:34.824Z,1.53
2022-12-04T01:27:47.407Z,1.53
2022-12-04T01:28:00.120Z,1.51
2022-12-04T01:28:13.712Z,1.52
2022-12-04T01:28:26.888Z,1.51
2022-12-04T01:28:39.664Z,1.51
2022-12-04T01:28:52.227Z,1.52
2022-12-04T01:29:04.953Z,1.53
2022-12-04T01:29:17.567Z,1.51
2022-12-04T01:29:30.199Z,1.53
2022-12-04T01:29:44.044Z,1.52
2022-12-04T01:29:57.070Z,1.51
2022-12-04T01:30:10.758Z,1.51
2022-12-04T01:30:23.483Z,1.52
2022-12-04T01:30:36.072Z,1.53
2022-12-04T01:30:58.780Z,1.53
2022-12-04T01:31:15.226Z,1.54
2022-12-04T01:31:28.054Z,1.54
2022-12-04T01:31:40.736Z,1.54
2022-12-04T01:31:53.463Z,1.54
2022-12-04T01:32:06.550Z,1.55
2022-12-04T01:32:20.161Z,1.53
2022-12-04T01:32:32.743Z,1.54
2022-12-04T01:32:45.326Z,1.53
2022-12-04T01:32:57.901Z,1.54
2022-12-04T01:33:10.501Z,1.55
2022-12-04T01:33:23.058Z,1.54
2022-12-04T01:33:37.192Z,1.55
2022-12-04T01:33:51.885Z,1.57
2022-12-04T01:34:04.493Z,1.56
2022-12-04T01:34:17.464Z,1.55
2022-12-04T01:34:30.094Z,1.55
2022-12-04T01:34:42.728Z,1.54
2022-12-04T01:34:55.338Z,1.54
2022-12-04T01:35:08.755Z,1.55
2022-12-04T01:35:22.372Z,1.54
2022-12-04T01:35:34.973Z,1.55
2022-12-04T01:35:53.052Z,1.55
2022-12-04T01:36:08.261Z,1.55
2022-12-04T01:36:24.211Z,1.55
2022-12-04T01:36:37.904Z,1.56
2022-12-04T01:36:50.465Z,1.55
2022-12-04T01:37:03.071Z,1.55
2022-12-04T01:37:15.697Z,1.57
2022-12-04T01:37:30.636Z,1.56
2022-12-04T01:37:43.228Z,1.56
2022-12-04T01:37:55.823Z,1.55
2022-12-04T01:38:08.397Z,1.55
2022-12-04T01:38:21.072Z,1.55
2022-12-04T01:38:35.763Z,1.53
2022-12-04T01:38:49.039Z,1.52
2022-12-04T01:39:01.729Z,1.53
2022-12-04T01:39:14.338Z,1.52
2022-12-04T01:39:26.959Z,1.51
2022-12-04T01:39:39.543Z,1.51
2022-12-04T01:39:52.294Z,1.52
2022-12-04T01:40:07.262Z,1.52
2022-12-04T01:40:20.239Z,1.51
2022-12-04T01:40:32.839Z,1.51
2022-12-04T01:40:45.419Z,1.51
2022-12-04T01:40:58.334Z,1.50
2022-12-04T01:41:13.029Z,1.50
2022-12-04T01:41:27.454Z,1.51
2022-12-04T01:41:41.831Z,1.49
2022-12-04T01:41:54.404Z,1.51
2022-12-04T01:42:07.211Z,1.52
2022-12-04T01:42:19.813Z,1.51
2022-12-04T01:42:32.455Z,1.50
2022-12-04T01:42:45.026Z,1.51
2022-12-04T01:42:59.956Z,1.51
2022-12-04T01:43:12.989Z,1.52
2022-12-04T01:43:28.464Z,1.51
2022-12-04T01:43:41.322Z,1.52
2022-12-04T01:44:10.850Z,1.52
2022-12-04T01:44:25.643Z,1.55
2022-12-04T01:45:18.043Z,1.53
2022-12-04T01:45:41.746Z,1.52
2022-12-04T01:45:55.411Z,1.53
2022-12-04T01:46:09.012Z,1.53
2022-12-04T01:46:22.729Z,1.54
2022-12-04T01:46:35.426Z,1.54
2022-12-04T01:46:51.516Z,1.53
2022-12-04T01:47:04.088Z,1.52
2022-12-04T01:47:16.938Z,1.53
2022-12-04T01:47:29.630Z,1.52
2022-12-04T01:47:42.322Z,1.52
2022-12-04T01:47:58.526Z,1.50
2022-12-04T01:48:19.087Z,1.51
2022-12-04T01:48:34.985Z,1.52
2022-12-04T01:48:52.271Z,1.50
2022-12-04T01:49:07.477Z,1.51
2022-12-04T01:49:23.423Z,1.50
2022-12-04T01:49:39.724Z,1.50
2022-12-04T01:49:52.501Z,1.49
2022-12-04T01:50:07.212Z,1.50
2022-12-04T01:50:19.795Z,1.50
2022-12-04T01:50:32.558Z,1.49
2022-12-04T01:50:48.520Z,1.49
2022-12-04T01:51:05.423Z,1.49
2022-12-04T01:51:21.066Z,1.48
2022-12-04T01:51:40.154Z,1.48
2022-12-04T01:51:56.410Z,1.48
2022-12-04T01:52:14.097Z,1.47
2022-12-04T01:52:27.064Z,1.49
2022-12-04T01:52:40.003Z,1.50
2022-12-04T01:52:52.681Z,1.51
2022-12-04T01:53:06.377Z,1.53
2022-12-04T01:53:20.307Z,1.54
2022-12-04T01:53:35.695Z,1.53
2022-12-04T01:53:53.149Z,1.54
2022-12-04T01:54:11.046Z,1.53
2022-12-04T01:54:28.729Z,1.53
2022-12-04T01:54:45.085Z,1.53
2022-12-04T01:55:00.817Z,1.54
2022-12-04T01:55:13.617Z,1.53
2022-12-04T01:55:26.427Z,1.53
2022-12-04T01:55:40.783Z,1.51
2022-12-04T01:55:53.959Z,1.52
2022-12-04T01:56:07.625Z,1.51
2022-12-04T01:56:24.077Z,1.51
2022-12-04T01:56:40.905Z,1.52
2022-12-04T01:56:58.215Z,1.51
2022-12-04T01:57:14.322Z,1.50
2022-12-04T01:57:29.711Z,1.47
2022-12-04T01:57:42.678Z,1.48
2022-12-04T01:57:57.023Z,1.49
2022-12-04T01:58:10.287Z,1.49
2022-12-04T01:58:26.956Z,1.48
2022-12-04T01:58:43.328Z,1.48
2022-12-04T01:58:59.249Z,1.48
2022-12-04T01:59:15.601Z,1.49
2022-12-04T01:59:32.772Z,1.50
2022-12-04T01:59:50.583Z,1.49
2022-12-04T02:00:08.540Z,1.49
2022-12-04T02:00:22.525Z,1.51
2022-12-04T02:00:35.215Z,1.49
2022-12-04T02:00:55.731Z,1.51
2022-12-04T02:01:10.958Z,1.50
2022-12-04T02:01:24.157Z,1.50
2022-12-04T02:01:42.882Z,1.51
2022-12-04T02:02:01.887Z,1.49
2022-12-04T02:02:19.059Z,1.50
2022-12-04T02:02:35.116Z,1.50
2022-12-04T02:02:48.645Z,1.59
2022-12-04T02:03:01.837Z,1.63
2022-12-04T02:03:15.145Z,1.66
2022-12-04T02:03:28.749Z,1.64
2022-12-04T02:03:41.487Z,1.62
2022-12-04T02:03:54.524Z,1.60
2022-12-04T02:04:07.108Z,1.59
2022-12-04T02:04:19.857Z,1.58
2022-12-04T02:04:34.849Z,1.57
2022-12-04T02:04:49.020Z,1.57
2022-12-04T02:05:03.578Z,1.57
2022-12-04T02:05:19.301Z,1.57
2022-12-04T02:05:31.909Z,1.55
2022-12-04T02:05:44.507Z,1.56
2022-12-04T02:05:57.107Z,1.56
2022-12-04T02:06:09.713Z,1.56
2022-12-04T02:06:22.301Z,1.56
2022-12-04T02:06:37.253Z,1.56
2022-12-04T02:06:49.897Z,1.55
2022-12-04T02:07:02.908Z,1.55
2022-12-04T02:07:15.589Z,1.55
2022-12-04T02:07:28.691Z,1.55
2022-12-04T02:07:43.568Z,1.55
2022-12-04T02:08:01.389Z,1.56
2022-12-04T02:08:14.076Z,1.57
2022-12-04T02:08:28.347Z,1.56
2022-12-04T02:08:41.278Z,1.56
2022-12-04T02:08:54.088Z,1.55
2022-12-04T02:09:06.979Z,1.55
2022-12-04T02:09:26.887Z,1.54
2022-12-04T02:09:41.884Z,1.55
2022-12-04T02:09:56.459Z,1.55
2022-12-04T02:10:10.257Z,1.56
2022-12-04T02:10:28.482Z,1.55
2022-12-04T02:10:50.642Z,1.54
2022-12-04T02:11:15.085Z,1.54
2022-12-04T02:11:33.502Z,1.55
2022-12-04T02:11:52.442Z,1.56
2022-12-04T02:12:12.021Z,1.55
2022-12-04T02:12:33.007Z,1.56
2022-12-04T02:12:51.257Z,1.54
2022-12-04T02:13:12.632Z,1.54
2022-12-04T02:13:32.774Z,1.55
2022-12-04T02:13:57.046Z,1.55
2022-12-04T02:14:20.298Z,1.55
2022-12-04T02:14:45.681Z,1.56
2022-12-04T02:15:06.261Z,1.56
2022-12-04T02:15:28.150Z,1.53
2022-12-04T02:15:48.874Z,1.53
2022-12-04T02:16:09.923Z,1.53
2022-12-04T02:16:30.961Z,1.53
2022-12-04T02:16:51.024Z,1.56
2022-12-04T02:17:13.053Z,1.56
2022-12-04T02:17:33.170Z,1.56
2022-12-04T02:17:53.848Z,1.56
2022-12-04T02:18:14.411Z,1.55
2022-12-04T02:18:33.859Z,1.54
2022-12-04T02:18:55.584Z,1.56
2022-12-04T02:19:26.364Z,1.55
2022-12-04T02:20:01.594Z,1.55
2022-12-04T02:20:25.381Z,1.55
2022-12-04T02:20:43.494Z,1.57
2022-12-04T02:21:05.294Z,1.55
2022-12-04T02:21:22.086Z,1.56
2022-12-04T02:21:38.012Z,1.55
2022-12-04T02:21:55.741Z,1.54
2022-12-04T02:22:17.013Z,1.55
2022-12-04T02:22:48.383Z,1.54
2022-12-04T02:23:34.530Z,1.56
2022-12-04T02:24:10.040Z,1.54
2022-12-04T02:24:46.769Z,1.54
2022-12-04T02:25:09.149Z,1.53
2022-12-04T02:25:29.525Z,1.51
2022-12-04T02:25:49.383Z,1.52
2022-12-04T02:26:17.843Z,1.52
2022-12-04T02:26:40.430Z,1.52
2022-12-04T02:27:00.085Z,1.52
2022-12-04T02:27:24.518Z,1.52
2022-12-04T02:28:02.660Z,1.52
2022-12-04T02:28:23.760Z,1.51
2022-12-04T02:28:44.413Z,1.51
2022-12-04T02:29:02.811Z,1.52
2022-12-04T02:29:35.234Z,1.51
2022-12-04T02:29:56.403Z,1.51
2022-12-04T02:30:12.793Z,1.51
2022-12-04T02:30:27.545Z,1.52
2022-12-04T02:30:42.922Z,1.53
2022-12-04T02:30:59.854Z,1.52
2022-12-04T02:31:17.065Z,1.51
2022-12-04T02:31:34.891Z,1.53
2022-12-04T02:31:56.417Z,1.52
2022-12-04T02:32:19.995Z,1.53
2022-12-04T02:32:38.551Z,1.53
2022-12-04T02:32:58.770Z,1.53
2022-12-04T02:33:18.621Z,1.55
2022-12-04T02:33:40.155Z,1.54
2022-12-04T02:34:01.392Z,1.55
2022-12-04T02:34:18.286Z,1.54
2022-12-04T02:34:40.419Z,1.54
2022-12-04T02:34:59.276Z,1.54
2022-12-04T02:35:17.794Z,1.54
2022-12-04T02:35:35.991Z,1.54
2022-12-04T02:35:55.608Z,1.55
2022-12-04T02:36:11.707Z,1.54
2022-12-04T02:36:27.676Z,1.54
2022-12-04T02:36:48.041Z,1.55
2022-12-04T02:37:07.581Z,1.54
2022-12-04T02:37:27.152Z,1.53
2022-12-04T02:37:44.881Z,1.54
2022-12-04T02:38:03.203Z,1.53
2022-12-04T02:38:24.694Z,1.51
2022-12-04T02:38:42.136Z,1.52
2022-12-04T02:38:58.997Z,1.52
2022-12-04T02:39:18.604Z,1.52
2022-12-04T02:39:36.533Z,1.54
2022-12-04T02:39:56.383Z,1.53
2022-12-04T02:40:17.067Z,1.52
2022-12-04T02:40:33.903Z,1.52
2022-12-04T02:40:52.886Z,1.51
2022-12-04T02:41:09.925Z,1.51
2022-12-04T02:41:26.092Z,1.50
2022-12-04T02:41:43.675Z,1.48
2022-12-04T02:42:03.278Z,1.50
2022-12-04T02:42:23.543Z,1.49
2022-12-04T02:42:40.528Z,1.49
2022-12-04T02:42:59.973Z,1.50
2022-12-04T02:43:17.862Z,1.50
2022-12-04T02:43:35.789Z,1.49
2022-12-04T02:43:52.189Z,1.48
2022-12-04T02:44:11.008Z,1.49
2022-12-04T02:44:28.036Z,1.50
2022-12-04T02:44:45.274Z,1.50
2022-12-04T02:45:02.504Z,1.50
2022-12-04T02:45:18.574Z,1.51
2022-12-04T02:45:35.751Z,1.51
2022-12-04T02:45:55.750Z,1.52
2022-12-04T02:46:12.044Z,1.52
2022-12-04T02:46:30.897Z,1.51
2022-12-04T02:46:48.002Z,1.51
2022-12-04T02:47:05.805Z,1.49
2022-12-04T02:47:22.450Z,1.50
2022-12-04T02:47:36.833Z,1.50
2022-12-04T02:47:52.232Z,1.50
2022-12-04T02:48:07.962Z,1.50
2022-12-04T02:48:22.421Z,1.51
2022-12-04T02:48:38.771Z,1.51
2022-12-04T02:48:55.698Z,1.52
2022-12-04T02:49:14.061Z,1.54
2022-12-04T02:49:32.511Z,1.52
2022-12-04T02:49:49.473Z,1.52
2022-12-04T02:50:05.314Z,1.51
2022-12-04T02:50:22.230Z,1.53
2022-12-04T02:50:39.615Z,1.54
2022-12-04T02:50:56.896Z,1.55
2022-12-04T02:51:13.473Z,1.54
2022-12-04T02:51:28.417Z,1.55
2022-12-04T02:51:45.005Z,1.56
2022-12-04T02:51:59.851Z,1.55
2022-12-04T02:52:18.146Z,1.55
2022-12-04T02:52:35.411Z,1.55
2022-12-04T02:52:53.305Z,1.55
2022-12-04T02:53:10.333Z,1.55
2022-12-04T02:53:29.319Z,1.57
2022-12-04T02:53:45.948Z,1.56
2022-12-04T02:54:02.983Z,1.56
2022-12-04T02:54:22.543Z,1.56
2022-12-04T02:54:40.522Z,1.56
2022-12-04T02:54:57.939Z,1.57
2022-12-04T02:55:16.559Z,1.57
2022-12-04T02:55:33.616Z,1.57
2022-12-04T02:55:51.607Z,1.57
2022-12-04T02:56:11.367Z,1.56
2022-12-04T02:56:28.747Z,1.57
2022-12-04T02:56:44.347Z,1.57
2022-12-04T02:56:58.693Z,1.57
2022-12-04T02:57:16.143Z,1.57
2022-12-04T02:57:35.262Z,1.58
2022-12-04T02:57:51.497Z,1.58
2022-12-04T02:58:13.088Z,1.58
2022-12-04T02:58:30.428Z,1.57
2022-12-04T02:58:47.338Z,1.58
2022-12-04T02:59:04.476Z,1.59
2022-12-04T02:59:21.545Z,1.59
2022-12-04T02:59:37.885Z,1.59
2022-12-04T02:59:51.923Z,1.58
2022-12-04T03:00:08.572Z,1.58
2022-12-04T03:00:22.352Z,1.59
2022-12-04T03:00:37.279Z,1.58
2022-12-04T03:00:52.871Z,1.59
2022-12-04T03:01:19.478Z,1.59
2022-12-04T03:01:38.941Z,1.59
2022-12-04T03:01:55.979Z,1.60
2022-12-04T03:02:12.752Z,1.60
2022-12-04T03:02:29.677Z,1.59
2022-12-04T03:02:49.831Z,1.59
2022-12-04T03:03:08.151Z,1.58
2022-12-04T03:03:23.740Z,1.58
2022-12-04T03:03:37.212Z,1.59
2022-12-04T03:03:54.185Z,1.59
2022-12-04T03:04:13.877Z,1.60
2022-12-04T03:04:30.737Z,1.58
2022-12-04T03:04:50.655Z,1.59
2022-12-04T03:05:08.411Z,1.60
2022-12-04T03:05:27.800Z,1.59
2022-12-04T03:05:43.627Z,1.59
2022-12-04T03:06:00.660Z,1.59
2022-12-04T03:06:15.589Z,1.58
2022-12-04T03:06:32.936Z,1.59
2022-12-04T03:06:49.666Z,1.58
2022-12-04T03:07:07.046Z,1.59
2022-12-04T03:07:26.323Z,1.58
2022-12-04T03:07:44.314Z,1.58
2022-12-04T03:08:02.350Z,1.59
2022-12-04T03:08:20.615Z,1.60
2022-12-04T03:08:37.671Z,1.59
2022-12-04T03:08:55.177Z,1.60
2022-12-04T03:09:14.012Z,1.58
2022-12-04T03:09:32.967Z,1.59
2022-12-04T03:09:52.488Z,1.58
2022-12-04T03:10:12.234Z,1.58
2022-12-04T03:10:29.844Z,1.60
2022-12-04T03:10:49.379Z,1.61
2022-12-04T03:11:03.192Z,1.59
2022-12-04T03:11:16.129Z,1.57
2022-12-04T03:11:34.086Z,1.58
2022-12-04T03:11:52.813Z,1.58
2022-12-04T03:12:10.639Z,1.57
2022-12-04T03:12:30.353Z,1.58
2022-12-04T03:12:48.671Z,1.57
2022-12-04T03:13:06.407Z,1.58
2022-12-04T03:13:24.169Z,1.57
2022-12-04T03:13:41.831Z,1.57
2022-12-04T03:14:00.847Z,1.56
2022-12-04T03:14:20.255Z,1.58
2022-12-04T03:14:36.607Z,1.59
2022-12-04T03:14:55.297Z,1.59
2022-12-04T03:15:12.422Z,1.58
2022-12-04T03:15:29.689Z,1.58
2022-12-04T03:15:45.903Z,1.58
2022-12-04T03:16:05.196Z,1.58
2022-12-04T03:16:23.201Z,1.59
2022-12-04T03:16:40.885Z,1.59
2022-12-04T03:16:58.314Z,1.59
2022-12-04T03:17:16.646Z,1.59
2022-12-04T03:17:36.519Z,1.59
2022-12-04T03:17:57.835Z,1.60
2022-12-04T03:18:16.631Z,1.60
2022-12-04T03:18:33.275Z,1.60
2022-12-04T03:18:50.738Z,1.62
2022-12-04T03:19:09.231Z,1.63
2022-12-04T03:19:24.727Z,1.61
2022-12-04T03:19:44.902Z,1.62
2022-12-04T03:20:02.744Z,1.61
2022-12-04T03:20:16.765Z,1.62
2022-12-04T03:20:33.138Z,1.62
2022-12-04T03:20:49.278Z,1.64
2022-12-04T03:21:05.374Z,1.63
2022-12-04T03:21:23.359Z,1.64
2022-12-04T03:21:38.993Z,1.62
2022-12-04T03:21:54.901Z,1.64
2022-12-04T03:22:15.324Z,1.63
2022-12-04T03:22:30.059Z,1.64
2022-12-04T03:22:46.058Z,1.64
2022-12-04T03:23:04.616Z,1.64
2022-12-04T03:23:22.592Z,1.64
2022-12-04T03:23:41.438Z,1.64
2022-12-04T03:23:59.544Z,1.63
2022-12-04T03:24:15.284Z,1.63
2022-12-04T03:24:31.290Z,1.61